Time;durP1;ratioP1;P1;durP2;ratioP2;P2;SDS_P1;SDS_P2;PMS_P1;PMS_P2;Temp;Humidity;BMP_temperature;BMP_pressure;BME280_temperature;BME280_humidity;BME280_pressure;Samples;Min_cycle;Max_cycle;Signal;HPM_P1;HPM_P2
2023/12/26 00:01:29;;;;;;;;;;;;;;;26.78;38.70;94197.59;4971886;28;7201;-54
2023/12/26 00:03:57;;;;;;;;;;;;;;;26.80;39.23;94195.06;4956613;28;7254;-55
2023/12/26 00:07:08;;;;;;;;;;;;;;;26.79;39.32;94196.34;4972072;28;9032;-55
2023/12/26 00:09:53;;;;;;;;;;;;;;;26.76;39.33;94192.59;4937392;29;7290;-55
2023/12/26 00:12:47;;;;;;;;;;;;;;;26.78;38.85;94198.34;4943435;29;7113;-54
2023/12/26 00:15:50;;;;;;;;;;;;;;;26.78;38.87;94194.84;4909046;29;7221;-55
2023/12/26 00:18:17;;;;;;;;;;;;;;;26.77;38.59;94193.34;4925209;29;7076;-54
2023/12/26 00:20:44;;;;;;;;;;;;;;;26.77;38.57;94193.34;4912625;29;8189;-55
2023/12/26 00:23:13;;;;;;;;;;;;;;;26.76;39.27;94187.09;4914463;29;7224;-54
2023/12/26 00:26:09;;;;;;;;;;;;;;;26.74;38.79;94184.09;4919975;29;8745;-54
2023/12/26 00:28:45;;;;;;;;;;;;;;;26.71;39.23;94190.63;4919245;29;7295;-54
2023/12/26 00:31:14;;;;;;;;;;;;;;;26.74;38.75;94197.16;4919431;29;9582;-55
2023/12/26 00:33:45;;;;;;;;;;;;;;;26.71;39.15;94198.16;4921415;29;6848;-54
2023/12/26 00:36:18;;;;;;;;;;;;;;;26.72;38.79;94202.41;4933466;29;7294;-54
2023/12/26 00:39:14;;;;;;;;;;;;;;;26.74;39.00;94205.44;4917629;29;7130;-54
2023/12/26 00:41:44;;;;;;;;;;;;;;;26.74;38.67;94197.16;4919700;29;7283;-54
2023/12/26 00:44:41;;;;;;;;;;;;;;;26.73;38.98;94201.19;4934915;29;8695;-55
2023/12/26 00:47:18;;;;;;;;;;;;;;;26.68;38.66;94197.22;4910351;29;8455;-55
2023/12/26 00:50:02;;;;;;;;;;;;;;;26.69;38.70;94198.69;4897428;29;7070;-54
2023/12/26 00:52:31;;;;;;;;;;;;;;;26.70;38.76;94194.69;4893576;29;8637;-37
2023/12/26 00:55:08;;;;;;;;;;;;;;;26.71;38.68;94196.16;4914077;29;7635;-37
2023/12/26 00:57:43;;;;;;;;;;;;;;;26.69;38.86;94195.94;4902490;29;7247;-37
2023/12/26 01:00:29;;;;;;;;;;;;;;;26.70;38.79;94204.97;4911347;29;7918;-37
2023/12/26 01:03:04;;;;;;;;;;;;;;;26.69;38.60;94193.16;4913467;29;9463;-37
2023/12/26 01:05:30;;;;;;;;;;;;;;;26.68;38.82;94199.22;4940519;28;7191;-37
2023/12/26 01:08:27;;;;;;;;;;;;;;;26.67;39.10;94200.47;4947907;28;9156;-37
2023/12/26 01:10:54;;;;;;;;;;;;;;;26.66;38.65;94188.72;4897935;29;7078;-37
2023/12/26 01:13:20;;;;;;;;;;;;;;;26.66;38.68;94188.72;4892717;29;7315;-37
2023/12/26 01:15:46;;;;;;;;;;;;;;;26.65;38.73;94183.69;4907275;29;7066;-39
2023/12/26 01:18:13;;;;;;;;;;;;;;;26.62;38.74;94188.25;4912474;29;7329;-37
2023/12/26 01:20:39;;;;;;;;;;;;;;;26.63;38.57;94192.50;4903909;29;9067;-37
2023/12/26 01:23:06;;;;;;;;;;;;;;;26.58;38.46;94185.03;4918256;28;6972;-37
2023/12/26 01:25:41;;;;;;;;;;;;;;;26.63;38.51;94184.22;4958250;28;7141;-37
2023/12/26 01:28:30;;;;;;;;;;;;;;;26.62;38.90;94191.00;4958450;28;6968;-37
2023/12/26 01:30:56;;;;;;;;;;;;;;;26.62;38.74;94187.53;4948006;28;9120;-37
2023/12/26 01:33:31;;;;;;;;;;;;;;;26.57;38.76;94180.06;4957101;28;9375;-37
2023/12/26 01:36:11;;;;;;;;;;;;;;;26.58;38.93;94171.25;4958198;28;7740;-37
2023/12/26 01:38:38;;;;;;;;;;;;;;;26.55;38.98;94179.84;4969651;28;7251;-37
2023/12/26 01:41:20;;;;;;;;;;;;;;;26.55;38.64;94185.34;4965747;28;7081;-37
2023/12/26 01:43:48;;;;;;;;;;;;;;;26.58;39.05;94181.53;4968414;28;7478;-37
2023/12/26 01:46:17;;;;;;;;;;;;;;;26.58;38.06;94187.81;4945692;28;8722;-37
2023/12/26 01:48:51;;;;;;;;;;;;;;;26.56;39.17;94176.53;5035007;28;9421;-37
2023/12/26 01:51:27;;;;;;;;;;;;;;;26.56;38.21;94184.06;5024515;28;7229;-37
2023/12/26 01:54:08;;;;;;;;;;;;;;;26.55;38.53;94180.59;5033642;28;7269;-37
2023/12/26 01:56:34;;;;;;;;;;;;;;;26.55;38.94;94185.34;5020042;28;9155;-37
2023/12/26 01:59:04;;;;;;;;;;;;;;;26.55;38.64;94188.88;5019424;28;9536;-37
2023/12/26 02:01:42;;;;;;;;;;;;;;;26.55;38.87;94188.13;5026732;28;8717;-40
2023/12/26 02:04:37;;;;;;;;;;;;;;;26.57;38.79;94185.56;5018455;28;7289;-39
2023/12/26 02:07:06;;;;;;;;;;;;;;;26.56;38.74;94186.81;4985912;28;7373;-39
2023/12/26 02:09:42;;;;;;;;;;;;;;;26.55;38.55;94193.63;5007770;28;8822;-39
2023/12/26 02:12:19;;;;;;;;;;;;;;;26.55;38.90;94188.13;5002299;28;7477;-39
2023/12/26 02:14:48;;;;;;;;;;;;;;;26.53;38.38;94196.16;5001374;28;7060;-38
2023/12/26 02:17:23;;;;;;;;;;;;;;;26.52;38.39;94189.16;5008439;28;9072;-41
2023/12/26 02:19:50;;;;;;;;;;;;;;;26.52;38.60;94195.41;5002824;28;6959;-38
2023/12/26 02:22:18;;;;;;;;;;;;;;;26.52;38.61;94203.69;5009484;28;7830;-39
2023/12/26 02:24:47;;;;;;;;;;;;;;;26.53;38.56;94196.16;5000564;28;8915;-39
2023/12/26 02:27:26;;;;;;;;;;;;;;;26.50;38.92;94197.94;4991011;28;7304;-40
2023/12/26 02:29:55;;;;;;;;;;;;;;;26.51;38.27;94198.69;5001036;28;7280;-39
2023/12/26 02:32:25;;;;;;;;;;;;;;;26.52;38.46;94189.16;4992604;28;7515;-39
2023/12/26 02:35:00;;;;;;;;;;;;;;;26.51;38.82;94190.44;5001317;28;9986;-39
2023/12/26 02:37:29;;;;;;;;;;;;;;;26.50;38.54;94191.69;4985005;28;8008;-39
2023/12/26 02:39:55;;;;;;;;;;;;;;;26.47;39.25;94203.78;5002459;28;7667;-39
2023/12/26 02:42:30;;;;;;;;;;;;;;;26.46;38.54;94202.25;5002834;28;7758;-39
2023/12/26 02:45:03;;;;;;;;;;;;;;;26.47;38.70;94192.75;5036509;28;9103;-39
2023/12/26 02:47:33;;;;;;;;;;;;;;;26.48;38.29;94205.25;5022634;28;8971;-39
2023/12/26 02:50:01;;;;;;;;;;;;;;;26.48;38.73;94210.75;5020685;28;7188;-39
2023/12/26 02:52:30;;;;;;;;;;;;;;;26.49;38.62;94213.00;5021033;28;8987;-39
2023/12/26 02:54:55;;;;;;;;;;;;;;;26.47;38.16;94221.03;5025715;28;7384;-40
2023/12/26 02:57:22;;;;;;;;;;;;;;;26.47;39.17;94225.84;5013892;28;9025;-39
2023/12/26 03:00:23;;;;;;;;;;;;;;;26.49;38.73;94228.81;5029919;28;9044;-39
2023/12/26 03:03:16;;;;;;;;;;;;;;;26.49;38.56;94228.81;4992648;28;7047;-39
2023/12/26 03:06:02;;;;;;;;;;;;;;;26.46;38.72;94230.59;4987223;28;7173;-41
2023/12/26 03:08:39;;;;;;;;;;;;;;;26.46;38.76;94229.84;4995655;28;7892;-39
2023/12/26 03:11:20;;;;;;;;;;;;;;;26.46;38.22;94230.59;5012248;28;7096;-54
2023/12/26 03:14:17;;;;;;;;;;;;;;;26.44;38.51;94230.38;4995446;28;7279;-54
2023/12/26 03:17:04;;;;;;;;;;;;;;;26.46;38.51;94227.84;5000125;28;9196;-54
2023/12/26 03:19:42;;;;;;;;;;;;;;;26.44;38.81;94232.38;5008272;28;7460;-54
2023/12/26 03:22:51;;;;;;;;;;;;;;;26.45;38.60;94225.59;5008696;28;7056;-54
2023/12/26 03:25:28;;;;;;;;;;;;;;;26.42;38.74;94226.63;5011924;28;6984;-54
2023/12/26 03:27:57;;;;;;;;;;;;;;;26.41;38.68;94223.13;5012144;28;7374;-54
2023/12/26 03:30:23;;;;;;;;;;;;;;;26.43;38.76;94226.09;4995136;28;9846;-54
2023/12/26 03:33:00;;;;;;;;;;;;;;;26.41;38.62;94220.38;4995589;28;7556;-54
2023/12/26 03:35:26;;;;;;;;;;;;;;;26.41;38.29;94223.13;4994581;28;7144;-53
2023/12/26 03:38:10;;;;;;;;;;;;;;;26.40;38.90;94224.41;5012933;28;7074;-53
2023/12/26 03:40:36;;;;;;;;;;;;;;;26.38;38.26;94220.69;5020925;28;9199;-54
2023/12/26 03:43:38;;;;;;;;;;;;;;;26.40;38.80;94218.91;5017625;28;7086;-54
2023/12/26 03:46:16;;;;;;;;;;;;;;;26.38;38.65;94226.19;4981481;28;7007;-55
2023/12/26 03:48:52;;;;;;;;;;;;;;;26.40;38.55;94238.19;4978467;28;9567;-54
2023/12/26 03:51:33;;;;;;;;;;;;;;;26.40;38.38;94229.94;4969346;28;9027;-54
2023/12/26 03:54:09;;;;;;;;;;;;;;;26.38;38.73;94231.72;4992161;28;9569;-54
2023/12/26 03:56:46;;;;;;;;;;;;;;;26.40;38.26;94231.94;4988285;28;8786;-54
2023/12/26 03:59:29;;;;;;;;;;;;;;;26.40;38.69;94223.66;4972729;28;9151;-54
2023/12/26 04:02:11;;;;;;;;;;;;;;;26.39;38.53;94224.91;4987396;28;7154;-54
2023/12/26 04:04:46;;;;;;;;;;;;;;;26.39;38.29;94222.16;4980022;28;8776;-54
2023/12/26 04:07:15;;;;;;;;;;;;;;;26.39;38.58;94227.66;4995840;28;7685;-54
2023/12/26 04:10:12;;;;;;;;;;;;;;;26.38;38.31;94234.47;4968301;28;9171;-54
2023/12/26 04:12:38;;;;;;;;;;;;;;;26.35;38.47;94236.25;4885838;29;7281;-54
2023/12/26 04:15:06;;;;;;;;;;;;;;;26.35;38.60;94235.50;4884588;29;7255;-54
2023/12/26 04:17:51;;;;;;;;;;;;;;;26.38;38.77;94237.22;4884199;29;8797;-54
2023/12/26 04:20:36;;;;;;;;;;;;;;;26.38;38.26;94237.22;4918243;28;7230;-54
2023/12/26 04:23:16;;;;;;;;;;;;;;;26.38;38.10;94228.94;4944537;28;9707;-36
2023/12/26 04:25:53;;;;;;;;;;;;;;;26.37;38.50;94232.97;4953538;28;10066;-36
2023/12/26 04:28:19;;;;;;;;;;;;;;;26.36;38.48;94237.00;4938240;28;7307;-36
2023/12/26 04:31:16;;;;;;;;;;;;;;;26.37;38.33;94238.47;4934396;28;6971;-36
2023/12/26 04:33:53;;;;;;;;;;;;;;;26.35;38.46;94243.75;4884092;29;9063;-36
2023/12/26 04:36:23;;;;;;;;;;;;;;;26.36;38.58;94237.72;4861278;29;8999;-36
2023/12/26 04:38:53;;;;;;;;;;;;;;;26.35;38.08;94239.00;4862058;29;9296;-36
2023/12/26 04:41:20;;;;;;;;;;;;;;;26.35;38.81;94241.00;4877799;29;9132;-36
2023/12/26 04:44:02;;;;;;;;;;;;;;;26.34;38.39;94245.03;4864728;29;7320;-36
2023/12/26 04:46:31;;;;;;;;;;;;;;;26.34;38.92;94248.53;4874382;29;9079;-36
2023/12/26 04:48:57;;;;;;;;;;;;;;;26.36;38.31;94256.31;4912922;28;7156;-36
2023/12/26 04:51:28;;;;;;;;;;;;;;;26.36;38.24;94261.81;4957980;28;7258;-36
2023/12/26 04:53:56;;;;;;;;;;;;;;;26.34;38.51;94267.84;4968134;28;7281;-36
2023/12/26 04:56:43;;;;;;;;;;;;;;;26.36;38.77;94259.06;4972420;28;7402;-36
2023/12/26 04:59:09;;;;;;;;;;;;;;;26.35;38.33;94265.81;4959257;28;9112;-36
2023/12/26 05:01:44;;;;;;;;;;;;;;;26.33;38.75;94268.34;4964815;28;7025;-35
2023/12/26 05:04:30;;;;;;;;;;;;;;;26.33;38.49;94265.59;4950962;28;7456;-37
2023/12/26 05:07:05;;;;;;;;;;;;;;;26.32;38.19;94259.34;4967857;28;7138;-36
2023/12/26 05:09:32;;;;;;;;;;;;;;;26.32;38.23;94264.13;4977110;28;7586;-36
2023/12/26 05:12:01;;;;;;;;;;;;;;;26.33;38.27;94268.34;5020213;28;7252;-36
2023/12/26 05:14:29;;;;;;;;;;;;;;;26.34;38.63;94267.09;5016092;28;9385;-36
2023/12/26 05:17:04;;;;;;;;;;;;;;;26.33;38.81;94273.88;5022787;28;7108;-36
2023/12/26 05:19:36;;;;;;;;;;;;;;;26.31;38.62;94281.91;5031086;28;9175;-36
2023/12/26 05:22:24;;;;;;;;;;;;;;;26.26;38.21;94277.19;5037192;28;8593;-36
2023/12/26 05:25:10;;;;;;;;;;;;;;;26.30;38.66;94277.66;5035463;28;9073;-36
2023/12/26 05:28:08;;;;;;;;;;;;;;;26.31;38.14;94293.69;5039309;28;7021;-36
2023/12/26 05:31:00;;;;;;;;;;;;;;;26.33;38.63;94287.66;4978189;28;8720;-36
2023/12/26 05:33:26;;;;;;;;;;;;;;;26.31;38.69;94284.69;4978217;28;7238;-37
2023/12/26 05:35:52;;;;;;;;;;;;;;;26.31;38.68;94292.94;4993609;28;8714;-37
2023/12/26 05:38:43;;;;;;;;;;;;;;;26.31;38.65;94295.72;4961733;28;6982;-37
2023/12/26 05:41:08;;;;;;;;;;;;;;;26.29;38.52;94295.47;4995528;28;7381;-37
2023/12/26 05:43:36;;;;;;;;;;;;;;;26.28;38.13;94291.22;4994220;28;10303;-37
2023/12/26 05:46:30;;;;;;;;;;;;;;;26.27;38.35;94301.53;4981260;28;7667;-37
2023/12/26 05:49:09;;;;;;;;;;;;;;;26.28;39.09;94296.72;4994176;28;9112;-37
2023/12/26 05:51:45;;;;;;;;;;;;;;;26.26;38.55;94302.78;4977808;28;9567;-37
2023/12/26 05:54:20;;;;;;;;;;;;;;;26.28;38.68;94299.47;4976076;28;7070;-37
2023/12/26 05:56:57;;;;;;;;;;;;;;;26.27;38.15;94300.75;4977073;28;9108;-38
2023/12/26 05:59:34;;;;;;;;;;;;;;;26.27;38.56;94307.03;4993722;28;9158;-38
2023/12/26 06:02:10;;;;;;;;;;;;;;;26.27;39.10;94312.53;4993471;28;7298;-37
2023/12/26 06:04:41;;;;;;;;;;;;;;;26.29;38.89;94309.25;4977620;28;9458;-37
2023/12/26 06:07:07;;;;;;;;;;;;;;;26.30;38.82;94316.25;5006896;28;9078;-37
2023/12/26 06:09:34;;;;;;;;;;;;;;;26.29;39.03;94320.28;5031026;28;7242;-37
2023/12/26 06:12:10;;;;;;;;;;;;;;;26.28;38.78;94318.78;5035212;28;7694;-37
2023/12/26 06:14:39;;;;;;;;;;;;;;;26.28;38.59;94318.78;5036828;28;7418;-38
2023/12/26 06:17:07;;;;;;;;;;;;;;;26.27;38.91;94322.81;5030397;28;7061;-37
2023/12/26 06:19:33;;;;;;;;;;;;;;;26.26;39.00;94321.31;5030550;28;9179;-37
2023/12/26 06:22:01;;;;;;;;;;;;;;;26.25;38.40;94325.34;5002680;28;8148;-37
2023/12/26 06:24:31;;;;;;;;;;;;;;;26.22;38.87;94335.41;5024539;28;8919;-37
2023/12/26 06:27:05;;;;;;;;;;;;;;;26.22;39.29;94340.91;5038758;28;9005;-37
2023/12/26 06:29:33;;;;;;;;;;;;;;;26.21;38.95;94346.94;5017845;28;7472;-37
2023/12/26 06:31:59;;;;;;;;;;;;;;;26.20;39.00;94350.97;5045771;28;7270;-37
2023/12/26 06:34:25;;;;;;;;;;;;;;;26.20;38.80;94356.47;5030042;28;9311;-37
2023/12/26 06:36:51;;;;;;;;;;;;;;;26.21;38.49;94346.94;5035487;28;7293;-37
2023/12/26 06:39:17;;;;;;;;;;;;;;;26.19;38.87;94350.19;5014543;28;9443;-37
2023/12/26 06:41:46;;;;;;;;;;;;;;;26.22;39.21;94360.22;5021934;28;7242;-36
2023/12/26 06:44:12;;;;;;;;;;;;;;;26.22;39.21;94368.47;5018629;28;9082;-36
2023/12/26 06:46:43;;;;;;;;;;;;;;;26.19;38.81;94364.00;5044662;28;6991;-35
2023/12/26 06:49:16;;;;;;;;;;;;;;;26.20;39.11;94367.50;5018538;28;8708;-36
2023/12/26 06:51:44;;;;;;;;;;;;;;;26.20;38.80;94373.75;5016623;28;9062;-36
2023/12/26 06:54:11;;;;;;;;;;;;;;;26.20;39.27;94373.00;5026044;28;9422;-36
2023/12/26 06:56:37;;;;;;;;;;;;;;;26.22;38.46;94370.47;5020323;28;7234;-36
2023/12/26 06:59:03;;;;;;;;;;;;;;;26.21;39.29;94363.50;5020844;28;7029;-36
2023/12/26 07:01:33;;;;;;;;;;;;;;;26.21;39.75;94369.00;5021276;28;9236;-36
2023/12/26 07:04:00;;;;;;;;;;;;;;;26.23;39.43;94374.75;5023545;28;8960;-37
2023/12/26 07:06:27;;;;;;;;;;;;;;;26.24;39.29;94382.50;5020745;28;9130;-36
2023/12/26 07:08:53;;;;;;;;;;;;;;;26.24;39.04;94374.22;5009199;28;9139;-36
2023/12/26 07:11:20;;;;;;;;;;;;;;;26.26;38.57;94368.94;5019732;28;9062;-36
2023/12/26 07:13:47;;;;;;;;;;;;;;;26.24;38.71;94373.47;5014056;28;9158;-36
2023/12/26 07:16:17;;;;;;;;;;;;;;;26.26;38.63;94374.44;5027661;28;9435;-36
2023/12/26 07:18:45;;;;;;;;;;;;;;;26.24;39.08;94373.47;5027939;28;9449;-36
2023/12/26 07:21:21;;;;;;;;;;;;;;;26.24;39.20;94370.72;5021636;28;7235;-36
2023/12/26 07:23:47;;;;;;;;;;;;;;;26.26;38.94;94376.47;5022237;28;8821;-36
2023/12/26 07:26:13;;;;;;;;;;;;;;;26.26;39.19;94387.50;5034729;28;7233;-36
2023/12/26 07:28:48;;;;;;;;;;;;;;;26.26;39.28;94393.75;5020246;28;7243;-36
2023/12/26 07:31:25;;;;;;;;;;;;;;;26.27;38.87;94389.75;5022262;28;9094;-36
2023/12/26 07:33:59;;;;;;;;;;;;;;;26.26;38.81;94395.75;5025140;28;7076;-36
2023/12/26 07:36:39;;;;;;;;;;;;;;;26.25;39.29;94392.28;5025152;28;7239;-36
2023/12/26 07:39:10;;;;;;;;;;;;;;;26.25;38.58;94402.56;5020418;28;8211;-36
2023/12/26 07:41:52;;;;;;;;;;;;;;;26.24;39.14;94406.56;5027854;28;9241;-36
2023/12/26 07:44:19;;;;;;;;;;;;;;;26.25;39.48;94405.31;5017519;28;7284;-36
2023/12/26 07:46:57;;;;;;;;;;;;;;;26.28;39.03;94420.81;5045794;28;7263;-36
2023/12/26 07:49:25;;;;;;;;;;;;;;;26.21;38.79;94419.34;5044528;28;8661;-36
2023/12/26 07:52:04;;;;;;;;;;;;;;;26.21;39.02;94429.66;5022714;28;7213;-49
2023/12/26 07:55:00;;;;;;;;;;;;;;;26.23;39.48;94433.38;5039820;28;9065;-53
2023/12/26 07:57:35;;;;;;;;;;;;;;;26.20;38.82;94437.19;5045598;28;9362;-53
2023/12/26 08:00:15;;;;;;;;;;;;;;;26.17;39.16;94438.94;5030987;28;8661;-53
2023/12/26 08:02:50;;;;;;;;;;;;;;;26.15;39.07;94444.22;5032262;28;6992;-52
2023/12/26 08:05:23;;;;;;;;;;;;;;;26.19;39.13;94448.72;5016074;28;9118;-53
2023/12/26 08:07:50;;;;;;;;;;;;;;;26.15;39.36;94441.47;5042423;28;7092;-53
2023/12/26 08:10:47;;;;;;;;;;;;;;;26.19;39.46;94443.22;5024434;28;8624;-53
2023/12/26 08:13:28;;;;;;;;;;;;;;;26.16;39.02;94445.72;4997140;28;8827;-53
2023/12/26 08:16:05;;;;;;;;;;;;;;;26.14;39.65;94448.22;4984726;28;7240;-53
2023/12/26 08:19:04;;;;;;;;;;;;;;;26.20;39.33;94450.22;4992154;28;7539;-53
2023/12/26 08:22:01;;;;;;;;;;;;;;;26.22;38.99;94455.94;4940514;29;7240;-54
2023/12/26 08:24:27;;;;;;;;;;;;;;;26.19;39.68;94460.47;4911400;29;9202;-53
2023/12/26 08:27:02;;;;;;;;;;;;;;;26.23;39.14;94474.00;4890414;29;8744;-50
2023/12/26 08:29:30;;;;;;;;;;;;;;;26.22;39.17;94462.22;4913226;29;7355;-51
2023/12/26 08:31:56;;;;;;;;;;;;;;;26.24;38.86;94467.22;4913837;29;7341;-50
2023/12/26 08:34:22;;;;;;;;;;;;;;;26.25;39.03;94465.97;4895337;29;7248;-54
2023/12/26 08:37:00;;;;;;;;;;;;;;;26.27;38.99;94463.44;4904795;29;9068;-52
2023/12/26 08:40:11;;;;;;;;;;;;;;;26.27;38.21;94464.19;4897704;29;9009;-53
2023/12/26 08:42:52;;;;;;;;;;;;;;;26.25;38.39;94461.22;4918075;29;9214;-53
2023/12/26 08:45:19;;;;;;;;;;;;;;;26.25;38.23;94472.22;4917525;29;7192;-53
2023/12/26 08:47:48;;;;;;;;;;;;;;;26.24;38.48;94469.97;4897480;29;7123;-50
2023/12/26 08:50:24;;;;;;;;;;;;;;;26.27;38.06;94486.25;4915694;29;7279;-52
2023/12/26 08:52:50;;;;;;;;;;;;;;;26.26;38.16;94484.00;4877858;29;8655;-51
2023/12/26 08:55:17;;;;;;;;;;;;;;;26.25;38.43;94479.75;4881821;29;9050;-50
2023/12/26 08:57:43;;;;;;;;;;;;;;;26.27;38.98;94480.75;4917582;29;7276;-51
2023/12/26 09:00:13;;;;;;;;;;;;;;;26.29;44.21;94488.50;4955823;28;9131;-53
2023/12/26 09:02:44;;;;;;;;;;;;;;;26.35;42.68;94495.47;4998437;28;7255;-39
2023/12/26 09:05:12;;;;;;;;;;;;;;;26.35;42.76;94494.69;5001287;28;9351;-40
2023/12/26 09:07:40;;;;;;;;;;;;;;;26.35;40.97;94489.19;4999763;28;9171;-40
2023/12/26 09:10:06;;;;;;;;;;;;;;;26.33;40.23;94494.47;5003075;28;7265;-40
2023/12/26 09:12:43;;;;;;;;;;;;;;;26.31;39.47;94495.00;4984271;28;7367;-40
2023/12/26 09:15:36;;;;;;;;;;;;;;;26.32;39.96;94496.47;4990045;28;7472;-39
2023/12/26 09:18:19;;;;;;;;;;;;;;;26.33;39.74;94502.75;4987564;28;7340;-40
2023/12/26 09:20:51;;;;;;;;;;;;;;;26.30;39.89;94499.00;5035223;28;9752;-41
2023/12/26 09:23:20;;;;;;;;;;;;;;;26.28;39.92;94500.75;5032769;28;7826;-41
2023/12/26 09:26:20;;;;;;;;;;;;;;;26.32;39.83;94512.28;5020064;28;9051;-39
2023/12/26 09:28:48;;;;;;;;;;;;;;;26.31;39.59;94517.06;4973317;28;7307;-40
2023/12/26 09:31:17;;;;;;;;;;;;;;;26.31;39.20;94527.31;4973428;28;7029;-40
2023/12/26 09:33:43;;;;;;;;;;;;;;;26.29;39.05;94529.84;4993802;28;7033;-40
2023/12/26 09:36:10;;;;;;;;;;;;;;;26.28;39.60;94523.59;4986045;28;7266;-40
2023/12/26 09:38:38;;;;;;;;;;;;;;;26.28;39.35;94525.59;4977651;28;7134;-41
2023/12/26 09:41:22;;;;;;;;;;;;;;;26.29;40.04;94530.59;4993097;28;7265;-41
2023/12/26 09:43:51;;;;;;;;;;;;;;;26.29;39.88;94524.34;4977473;28;7078;-40
2023/12/26 09:46:20;;;;;;;;;;;;;;;26.25;39.48;94524.63;4971856;28;9671;-40
2023/12/26 09:48:59;;;;;;;;;;;;;;;26.29;39.95;94536.13;4987438;28;6974;-40
2023/12/26 09:51:26;;;;;;;;;;;;;;;26.29;40.04;94540.88;4976251;28;7197;-43
2023/12/26 09:54:26;;;;;;;;;;;;;;;26.29;40.25;94535.38;4988921;28;9513;-40
2023/12/26 09:57:03;;;;;;;;;;;;;;;26.25;40.36;94529.38;4919363;29;9049;-41
2023/12/26 09:59:55;;;;;;;;;;;;;;;26.28;40.21;94525.59;4913721;29;7216;-40
2023/12/26 10:02:39;;;;;;;;;;;;;;;26.29;40.35;94521.56;4917320;29;7238;-40
2023/12/26 10:05:17;;;;;;;;;;;;;;;26.31;40.43;94527.31;4945391;28;7268;-40
2023/12/26 10:08:00;;;;;;;;;;;;;;;26.33;40.34;94511.00;4967444;28;9140;-40
2023/12/26 10:10:37;;;;;;;;;;;;;;;26.34;39.90;94520.78;4976331;28;8002;-41
2023/12/26 10:13:50;;;;;;;;;;;;;;;26.34;39.82;94520.78;4959662;28;9041;-40
2023/12/26 10:16:26;;;;;;;;;;;;;;;26.32;40.33;94509.53;4937800;28;7224;-39
2023/12/26 10:18:57;;;;;;;;;;;;;;;26.31;40.54;94516.31;4940801;28;7088;-39
2023/12/26 10:21:29;;;;;;;;;;;;;;;26.32;39.96;94512.28;4930235;28;7769;-39
2023/12/26 10:24:14;;;;;;;;;;;;;;;26.33;40.23;94509.00;4948579;28;6885;-40
2023/12/26 10:26:40;;;;;;;;;;;;;;;26.33;40.50;94502.75;4922915;28;7141;-40
2023/12/26 10:29:12;;;;;;;;;;;;;;;26.32;39.85;94507.50;4932537;28;8693;-40
2023/12/26 10:31:41;;;;;;;;;;;;;;;26.32;40.03;94502.00;4938981;28;9331;-39
2023/12/26 10:34:19;;;;;;;;;;;;;;;26.28;40.49;94493.25;5008281;28;7001;-40
2023/12/26 10:36:52;;;;;;;;;;;;;;;26.30;40.23;94503.75;4986040;28;9083;-40
2023/12/26 10:39:18;;;;;;;;;;;;;;;26.32;40.21;94502.00;4988289;28;7092;-39
2023/12/26 10:41:47;;;;;;;;;;;;;;;26.31;40.62;94494.25;4993866;28;8924;-40
2023/12/26 10:44:16;;;;;;;;;;;;;;;26.31;40.17;94503.25;4991182;28;8743;-39
2023/12/26 10:46:45;;;;;;;;;;;;;;;26.30;40.32;94507.28;4981291;28;9099;-40
2023/12/26 10:49:20;;;;;;;;;;;;;;;26.33;40.95;94506.25;4987526;28;9867;-39
2023/12/26 10:52:00;;;;;;;;;;;;;;;26.29;40.44;94507.78;5030033;28;7451;-39
2023/12/26 10:54:30;;;;;;;;;;;;;;;26.32;40.29;94517.81;5020050;28;7618;-40
2023/12/26 10:56:59;;;;;;;;;;;;;;;26.29;40.89;94507.78;5022035;28;7299;-40
2023/12/26 13:53:43;;;;;;;;;;;;;;;27.66;40.00;94571.28;4891199;29;9117;-37
2023/12/26 13:56:19;;;;;;;;;;;;;;;27.68;39.61;94559.72;4884431;29;7291;-37
2023/12/26 13:59:21;;;;;;;;;;;;;;;27.72;39.62;94546.34;4889600;28;8839;-37
2023/12/26 14:02:36;;;;;;;;;;;;;;;27.71;39.25;94548.34;4969272;28;8754;-37
2023/12/26 14:05:22;;;;;;;;;;;;;;;27.69;39.32;94544.63;4930220;28;7635;-37
2023/12/26 14:08:01;;;;;;;;;;;;;;;27.69;39.78;94544.63;4945253;28;7224;-37
2023/12/26 14:10:38;;;;;;;;;;;;;;;27.66;38.99;94543.66;4934483;28;7326;-37
2023/12/26 14:13:17;;;;;;;;;;;;;;;27.63;37.98;94545.44;4930083;28;9819;-37
2023/12/26 14:15:53;;;;;;;;;;;;;;;27.64;37.13;94543.44;4954366;28;9113;-37
2023/12/26 14:18:21;;;;;;;;;;;;;;;27.60;37.52;94554.75;4939205;28;7423;-37
2023/12/26 14:21:05;;;;;;;;;;;;;;;27.61;37.87;94561.78;4938332;28;7059;-37
2023/12/26 14:23:34;;;;;;;;;;;;;;;27.64;37.81;94566.25;4939157;28;7705;-37
2023/12/26 14:26:02;;;;;;;;;;;;;;;27.63;38.30;94558.50;4938961;28;7271;-37
2023/12/26 14:28:36;;;;;;;;;;;;;;;27.63;37.85;94562.03;4938822;28;7258;-37
2023/12/26 14:31:37;;;;;;;;;;;;;;;27.63;38.07;94559.25;4937251;28;9222;-37
2023/12/26 14:34:03;;;;;;;;;;;;;;;27.63;37.91;94558.50;4934716;29;9099;-36
2023/12/26 14:36:49;;;;;;;;;;;;;;;27.62;38.17;94552.22;4948523;28;9178;-37
2023/12/26 14:39:26;;;;;;;;;;;;;;;27.60;37.69;94556.78;4939380;28;9266;-37
2023/12/26 14:41:57;;;;;;;;;;;;;;;27.56;38.32;94546.03;5001860;28;7053;-37
2023/12/26 14:44:36;;;;;;;;;;;;;;;27.61;38.04;94550.75;5031404;28;7120;-37
2023/12/26 14:47:03;;;;;;;;;;;;;;;27.62;38.31;94557.03;5023445;28;7244;-37
2023/12/26 14:49:30;;;;;;;;;;;;;;;27.59;38.38;94564.34;5011314;28;8736;-37
2023/12/26 14:51:56;;;;;;;;;;;;;;;27.60;38.28;94585.16;5013246;28;8878;-40
2023/12/26 14:54:22;;;;;;;;;;;;;;;27.58;38.12;94584.94;5028320;28;9144;-40
2023/12/26 14:56:48;;;;;;;;;;;;;;;27.59;38.16;94596.72;5032067;28;8643;-40
2023/12/26 14:59:14;;;;;;;;;;;;;;;27.60;37.79;94598.97;5039721;28;9587;-40
2023/12/26 15:01:39;;;;;;;;;;;;;;;27.61;38.46;94594.19;5042265;28;7249;-40
2023/12/26 15:04:09;;;;;;;;;;;;;;;27.61;38.56;94594.94;5023695;28;7360;-40
2023/12/26 15:06:36;;;;;;;;;;;;;;;27.60;38.32;94593.44;5028531;28;8728;-40
2023/12/26 15:09:06;;;;;;;;;;;;;;;27.60;38.45;94598.97;5024004;28;7194;-40
2023/12/26 15:11:34;;;;;;;;;;;;;;;27.57;37.99;94600.03;5027441;28;7232;-41
2023/12/26 15:14:02;;;;;;;;;;;;;;;27.54;38.07;94600.31;5011005;28;7167;-40
2023/12/26 15:16:28;;;;;;;;;;;;;;;27.53;38.23;94609.88;5031535;28;7531;-39
2023/12/26 15:18:55;;;;;;;;;;;;;;;27.48;37.55;94597.59;5018804;28;6994;-40
2023/12/26 15:21:21;;;;;;;;;;;;;;;27.49;38.13;94601.84;5019539;28;8453;-41
2023/12/26 15:23:49;;;;;;;;;;;;;;;27.45;38.57;94604.16;5021233;28;6998;-39
2023/12/26 15:26:15;;;;;;;;;;;;;;;27.49;38.23;94606.66;5021028;28;7141;-40
2023/12/26 15:28:52;;;;;;;;;;;;;;;27.45;37.80;94601.41;5029366;28;9417;-41
2023/12/26 15:31:25;;;;;;;;;;;;;;;27.42;38.31;94605.22;5023277;28;7233;-40
2023/12/26 15:33:54;;;;;;;;;;;;;;;27.39;37.71;94606.22;5030873;28;6972;-40
2023/12/26 15:36:41;;;;;;;;;;;;;;;27.36;37.68;94606.53;5037499;28;9083;-40
2023/12/26 15:39:09;;;;;;;;;;;;;;;27.36;37.60;94615.53;5023661;28;7150;-40
2023/12/26 15:41:42;;;;;;;;;;;;;;;27.35;37.74;94614.06;5034848;28;8901;-39
2023/12/26 15:44:16;;;;;;;;;;;;;;;27.30;37.58;94612.06;5023275;28;7046;-40
2023/12/26 15:46:50;;;;;;;;;;;;;;;27.35;37.13;94614.06;5027144;28;9452;-40
2023/12/26 15:49:30;;;;;;;;;;;;;;;27.35;37.55;94616.81;5026961;28;7586;-40
2023/12/26 15:51:56;;;;;;;;;;;;;;;27.36;37.61;94618.31;5026910;28;9712;-41
2023/12/26 15:54:22;;;;;;;;;;;;;;;27.37;37.44;94614.28;5030790;28;7201;-40
2023/12/26 15:57:02;;;;;;;;;;;;;;;27.36;37.36;94621.06;5024728;28;9024;-40
2023/12/26 15:59:50;;;;;;;;;;;;;;;27.38;37.10;94626.09;5019990;28;8909;-39
2023/12/26 16:02:17;;;;;;;;;;;;;;;27.36;37.71;94623.09;5019923;28;6872;-49
2023/12/26 16:04:58;;;;;;;;;;;;;;;27.37;37.53;94619.06;5026297;28;7534;-56
2023/12/26 16:07:30;;;;;;;;;;;;;;;27.38;37.10;94626.81;5043617;28;8725;-53
2023/12/26 16:10:06;;;;;;;;;;;;;;;27.35;37.30;94632.63;5033008;28;9160;-55
2023/12/26 16:12:42;;;;;;;;;;;;;;;27.32;37.23;94628.88;5042572;28;9437;-52
2023/12/26 16:15:08;;;;;;;;;;;;;;;27.35;37.46;94625.13;5026315;28;7069;-53
2023/12/26 16:17:35;;;;;;;;;;;;;;;27.39;37.26;94628.34;5020447;28;9584;-55
2023/12/26 16:20:10;;;;;;;;;;;;;;;27.38;37.29;94621.31;5019244;28;9063;-50
2023/12/26 16:22:37;;;;;;;;;;;;;;;27.36;37.42;94610.03;5018370;28;7132;-53
2023/12/26 16:25:03;;;;;;;;;;;;;;;27.33;37.28;94602.75;5025959;28;7116;-55
2023/12/26 16:27:33;;;;;;;;;;;;;;;27.31;37.38;94599.78;5027449;28;8964;-54
2023/12/26 16:30:06;;;;;;;;;;;;;;;27.29;37.26;94596.78;5028274;28;7128;-53
2023/12/26 16:32:33;;;;;;;;;;;;;;;27.27;37.21;94593.78;5030479;28;7257;-50